sensor_id;sensor_type;location;lat;lon;timestamp;pressure;altitude;pressure_sealevel;temperature;humidity
41712;BME280;27399;51.516;13.670;2023-05-22T00:01:43;100535.00;;;20.31;66.77
41712;BME280;27399;51.516;13.670;2023-05-22T00:04:09;100539.63;;;20.28;67.71
41712;BME280;27399;51.516;13.670;2023-05-22T00:06:41;100539.63;;;20.28;69.35
41712;BME280;27399;51.516;13.670;2023-05-22T00:09:07;100544.56;;;20.19;69.18
41712;BME280;27399;51.516;13.670;2023-05-22T00:11:32;100536.91;;;20.28;68.75
41712;BME280;27399;51.516;13.670;2023-05-22T00:14:00;100541.66;;;20.23;68.42
41712;BME280;27399;51.516;13.670;2023-05-22T00:16:26;100540.09;;;20.18;70.25
41712;BME280;27399;51.516;13.670;2023-05-22T00:18:52;100536.22;;;20.23;68.72
41712;BME280;27399;51.516;13.670;2023-05-22T00:21:17;100534.38;;;20.05;69.58
41712;BME280;27399;51.516;13.670;2023-05-22T00:23:44;100535.84;;;20.12;67.84
41712;BME280;27399;51.516;13.670;2023-05-22T00:26:13;100531.81;;;20.02;69.69
41712;BME280;27399;51.516;13.670;2023-05-22T00:28:41;100537.31;;;20.00;70.03
41712;BME280;27399;51.516;13.670;2023-05-22T00:31:06;100547.84;;;19.87;71.11
41712;BME280;27399;51.516;13.670;2023-05-22T00:33:32;100536.63;;;19.95;70.34
41712;BME280;27399;51.516;13.670;2023-05-22T00:35:58;100537.41;;;19.78;70.00
41712;BME280;27399;51.516;13.670;2023-05-22T00:38:31;100537.00;;;19.87;70.07
41712;BME280;27399;51.516;13.670;2023-05-22T00:41:03;100538.94;;;19.84;70.02
41712;BME280;27399;51.516;13.670;2023-05-22T00:43:29;100539.72;;;19.87;69.94
41712;BME280;27399;51.516;13.670;2023-05-22T00:45:55;100539.72;;;19.87;69.45
41712;BME280;27399;51.516;13.670;2023-05-22T00:48:21;100541.16;;;19.74;70.31
41712;BME280;27399;51.516;13.670;2023-05-22T00:50:48;100533.34;;;19.67;70.05
41712;BME280;27399;51.516;13.670;2023-05-22T00:53:15;100534.28;;;19.66;70.17
41712;BME280;27399;51.516;13.670;2023-05-22T00:55:42;100538.34;;;19.56;70.26
41712;BME280;27399;51.516;13.670;2023-05-22T00:58:14;100533.94;;;19.54;70.36
41712;BME280;27399;51.516;13.670;2023-05-22T01:00:40;100520.78;;;19.46;70.97
41712;BME280;27399;51.516;13.670;2023-05-22T01:03:09;100534.22;;;19.47;71.31
41712;BME280;27399;51.516;13.670;2023-05-22T01:05:39;100527.13;;;19.45;70.78
41712;BME280;27399;51.516;13.670;2023-05-22T01:08:07;100529.81;;;19.45;70.50
41712;BME280;27399;51.516;13.670;2023-05-22T01:10:34;100531.56;;;19.25;71.01
41712;BME280;27399;51.516;13.670;2023-05-22T01:13:18;100524.06;;;19.32;70.73
41712;BME280;27399;51.516;13.670;2023-05-22T01:16:00;100532.25;;;19.30;71.05
41712;BME280;27399;51.516;13.670;2023-05-22T01:21:20;100529.00;;;19.22;71.00
41712;BME280;27399;51.516;13.670;2023-05-22T01:29:39;100533.28;;;19.05;71.53
41712;BME280;27399;51.516;13.670;2023-05-22T01:32:08;100529.91;;;19.00;72.59
41712;BME280;27399;51.516;13.670;2023-05-22T01:34:36;100537.31;;;18.95;72.16
41712;BME280;27399;51.516;13.670;2023-05-22T01:37:03;100530.19;;;18.93;72.76
41712;BME280;27399;51.516;13.670;2023-05-22T01:39:29;100536.38;;;18.96;72.14
41712;BME280;27399;51.516;13.670;2023-05-22T01:41:56;100532.06;;;18.90;73.28
41712;BME280;27399;51.516;13.670;2023-05-22T01:44:22;100536.69;;;18.88;72.31
41712;BME280;27399;51.516;13.670;2023-05-22T01:46:47;100528.25;;;18.52;73.58
41712;BME280;27399;51.516;13.670;2023-05-22T01:49:13;100530.66;;;18.82;72.38
41712;BME280;27399;51.516;13.670;2023-05-22T01:51:56;100527.88;;;18.83;72.35
41712;BME280;27399;51.516;13.670;2023-05-22T01:54:31;100534.03;;;18.65;72.81
41712;BME280;27399;51.516;13.670;2023-05-22T01:57:18;100534.91;;;18.65;73.53
41712;BME280;27399;51.516;13.670;2023-05-22T01:59:47;100539.19;;;18.71;72.82
41712;BME280;27399;51.516;13.670;2023-05-22T02:02:17;100533.78;;;18.71;72.34
41712;BME280;27399;51.516;13.670;2023-05-22T02:04:56;100535.34;;;18.54;73.32
41712;BME280;27399;51.516;13.670;2023-05-22T02:07:23;100530.44;;;18.64;73.15
41712;BME280;27399;51.516;13.670;2023-05-22T02:09:50;100535.19;;;18.57;73.61
41712;BME280;27399;51.516;13.670;2023-05-22T02:12:18;100532.75;;;18.51;73.29
41712;BME280;27399;51.516;13.670;2023-05-22T02:14:45;100532.84;;;18.50;73.65
41712;BME280;27399;51.516;13.670;2023-05-22T02:17:10;100530.81;;;18.55;73.36
41712;BME280;27399;51.516;13.670;2023-05-22T02:19:37;100519.44;;;18.47;73.76
41712;BME280;27399;51.516;13.670;2023-05-22T02:22:02;100519.16;;;18.54;74.12
41712;BME280;27399;51.516;13.670;2023-05-22T02:24:32;100511.00;;;18.32;75.09
41712;BME280;27399;51.516;13.670;2023-05-22T02:26:58;100510.97;;;18.34;74.43
41712;BME280;27399;51.516;13.670;2023-05-22T02:29:23;100513.69;;;18.32;74.91
41712;BME280;27399;51.516;13.670;2023-05-22T02:31:49;100510.25;;;18.28;74.61
41712;BME280;27399;51.516;13.670;2023-05-22T02:34:17;100521.81;;;18.32;75.02
41712;BME280;27399;51.516;13.670;2023-05-22T02:36:43;100508.06;;;18.38;74.09
41712;BME280;27399;51.516;13.670;2023-05-22T02:39:08;100519.81;;;18.14;74.51
41712;BME280;27399;51.516;13.670;2023-05-22T02:41:34;100521.94;;;18.29;74.44
41712;BME280;27399;51.516;13.670;2023-05-22T02:43:59;100508.38;;;18.31;74.32
41712;BME280;27399;51.516;13.670;2023-05-22T02:46:25;100512.56;;;18.16;74.42
41712;BME280;27399;51.516;13.670;2023-05-22T02:48:51;100512.63;;;18.14;74.29
41712;BME280;27399;51.516;13.670;2023-05-22T02:51:16;100510.78;;;18.15;74.81
41712;BME280;27399;51.516;13.670;2023-05-22T02:53:42;100502.88;;;18.10;74.50
41712;BME280;27399;51.516;13.670;2023-05-22T02:56:09;100515.91;;;18.22;74.07
41712;BME280;27399;51.516;13.670;2023-05-22T02:58:38;100518.88;;;18.15;75.11
41712;BME280;27399;51.516;13.670;2023-05-22T03:01:04;100516.13;;;18.16;74.92
41712;BME280;27399;51.516;13.670;2023-05-22T03:03:31;100513.78;;;18.07;75.32
41712;BME280;27399;51.516;13.670;2023-05-22T03:05:59;100510.91;;;18.11;75.50
41712;BME280;27399;51.516;13.670;2023-05-22T03:08:26;100503.59;;;17.90;75.79
41712;BME280;27399;51.516;13.670;2023-05-22T03:10:54;100510.44;;;18.00;75.81
41712;BME280;27399;51.516;13.670;2023-05-22T03:13:20;100510.44;;;18.00;75.59
41712;BME280;27399;51.516;13.670;2023-05-22T03:15:45;100503.16;;;18.02;76.04
41712;BME280;27399;51.516;13.670;2023-05-22T03:18:11;100505.34;;;17.91;75.90
41712;BME280;27399;51.516;13.670;2023-05-22T03:20:37;100506.97;;;17.96;75.82
41712;BME280;27399;51.516;13.670;2023-05-22T03:23:03;100504.00;;;18.04;75.75
41712;BME280;27399;51.516;13.670;2023-05-22T03:25:29;100504.38;;;17.93;75.92
41712;BME280;27399;51.516;13.670;2023-05-22T03:27:55;100504.91;;;18.03;75.69
41712;BME280;27399;51.516;13.670;2023-05-22T03:30:20;100499.13;;;17.89;75.95
41712;BME280;27399;51.516;13.670;2023-05-22T03:32:46;100500.84;;;17.91;75.97
41712;BME280;27399;51.516;13.670;2023-05-22T03:35:12;100497.06;;;17.95;76.45
41712;BME280;27399;51.516;13.670;2023-05-22T03:37:40;100502.63;;;17.92;76.15
41712;BME280;27399;51.516;13.670;2023-05-22T03:40:06;100501.97;;;17.86;75.95
41712;BME280;27399;51.516;13.670;2023-05-22T03:42:32;100504.28;;;17.96;76.12
41712;BME280;27399;51.516;13.670;2023-05-22T03:44:58;100506.34;;;17.88;76.02
41712;BME280;27399;51.516;13.670;2023-05-22T03:47:23;100506.09;;;17.94;75.96
41712;BME280;27399;51.516;13.670;2023-05-22T03:49:49;100507.00;;;17.95;75.95
41712;BME280;27399;51.516;13.670;2023-05-22T03:52:15;100510.75;;;17.91;76.92
41712;BME280;27399;51.516;13.670;2023-05-22T03:54:40;100504.53;;;17.89;76.38
41712;BME280;27399;51.516;13.670;2023-05-22T03:57:06;100506.09;;;17.94;76.47
41712;BME280;27399;51.516;13.670;2023-05-22T03:59:31;100508.78;;;17.96;76.98
41712;BME280;27399;51.516;13.670;2023-05-22T04:01:57;100507.00;;;17.95;76.92
41712;BME280;27399;51.516;13.670;2023-05-22T04:04:26;100507.78;;;17.99;76.88
41712;BME280;27399;51.516;13.670;2023-05-22T04:06:52;100511.38;;;17.99;76.80
41712;BME280;27399;51.516;13.670;2023-05-22T04:09:18;100501.53;;;17.98;77.42
41712;BME280;27399;51.516;13.670;2023-05-22T04:11:44;100504.72;;;18.09;76.98
41712;BME280;27399;51.516;13.670;2023-05-22T04:14:10;100503.25;;;18.23;76.75
41712;BME280;27399;51.516;13.670;2023-05-22T04:16:36;100511.22;;;18.04;77.57
41712;BME280;27399;51.516;13.670;2023-05-22T04:19:02;100502.00;;;18.09;77.10
41712;BME280;27399;51.516;13.670;2023-05-22T04:21:31;100510.25;;;18.28;77.11
41712;BME280;27399;51.516;13.670;2023-05-22T04:24:03;100515.06;;;18.20;76.75
41712;BME280;27399;51.516;13.670;2023-05-22T04:26:34;100505.78;;;18.27;77.02
41712;BME280;27399;51.516;13.670;2023-05-22T04:29:00;100498.31;;;18.34;76.85
41712;BME280;27399;51.516;13.670;2023-05-22T04:31:26;100493.19;;;18.28;77.63
41712;BME280;27399;51.516;13.670;2023-05-22T04:33:52;100502.31;;;18.48;76.93
41712;BME280;27399;51.516;13.670;2023-05-22T04:36:19;100503.94;;;18.52;76.67
41712;BME280;27399;51.516;13.670;2023-05-22T04:38:50;100502.63;;;18.62;77.15
41712;BME280;27399;51.516;13.670;2023-05-22T04:41:16;100515.16;;;18.63;77.15
41712;BME280;27399;51.516;13.670;2023-05-22T04:43:43;100517.25;;;18.79;76.88
41712;BME280;27399;51.516;13.670;2023-05-22T04:46:08;100514.81;;;18.72;78.01
41712;BME280;27399;51.516;13.670;2023-05-22T04:48:34;100508.22;;;18.80;74.68
41712;BME280;27399;51.516;13.670;2023-05-22T04:51:02;100507.00;;;18.87;75.58
41712;BME280;27399;51.516;13.670;2023-05-22T04:53:28;100506.25;;;18.83;76.93
41712;BME280;27399;51.516;13.670;2023-05-22T04:55:55;100507.03;;;19.09;75.74
41712;BME280;27399;51.516;13.670;2023-05-22T04:58:21;100508.84;;;19.09;76.96
41712;BME280;27399;51.516;13.670;2023-05-22T05:00:48;100500.84;;;19.05;78.33
41712;BME280;27399;51.516;13.670;2023-05-22T05:03:14;100507.25;;;19.25;76.86
41712;BME280;27399;51.516;13.670;2023-05-22T05:05:39;100508.72;;;19.32;74.93
41712;BME280;27399;51.516;13.670;2023-05-22T05:08:05;100513.84;;;19.39;77.58
41712;BME280;27399;51.516;13.670;2023-05-22T05:10:31;100506.31;;;19.47;74.45
41712;BME280;27399;51.516;13.670;2023-05-22T05:12:57;100515.94;;;19.52;77.91
41712;BME280;27399;51.516;13.670;2023-05-22T05:15:22;100504.44;;;19.68;78.19
41712;BME280;27399;51.516;13.670;2023-05-22T05:17:48;100512.47;;;19.70;78.32
41712;BME280;27399;51.516;13.670;2023-05-22T05:20:14;100508.84;;;19.91;75.87
41712;BME280;27399;51.516;13.670;2023-05-22T05:22:39;100502.47;;;19.92;75.71
41712;BME280;27399;51.516;13.670;2023-05-22T05:25:05;100506.66;;;20.00;77.12
41712;BME280;27399;51.516;13.670;2023-05-22T05:27:31;100503.22;;;20.15;76.62
41712;BME280;27399;51.516;13.670;2023-05-22T05:29:57;100499.44;;;20.19;74.45
41712;BME280;27399;51.516;13.670;2023-05-22T05:32:23;100499.94;;;20.27;72.79
41712;BME280;27399;51.516;13.670;2023-05-22T05:34:49;100492.03;;;20.23;70.32
41712;BME280;27399;51.516;13.670;2023-05-22T05:37:14;100494.13;;;20.54;70.32
41712;BME280;27399;51.516;13.670;2023-05-22T05:39:40;100494.47;;;20.66;72.34
41712;BME280;27399;51.516;13.670;2023-05-22T05:42:06;100494.47;;;20.66;70.07
41712;BME280;27399;51.516;13.670;2023-05-22T05:44:31;100492.72;;;20.65;69.70
41712;BME280;27399;51.516;13.670;2023-05-22T05:46:57;100494.56;;;20.83;70.96
41712;BME280;27399;51.516;13.670;2023-05-22T05:49:23;100501.66;;;20.67;71.44
41712;BME280;27399;51.516;13.670;2023-05-22T05:51:48;100488.09;;;20.86;69.00
41712;BME280;27399;51.516;13.670;2023-05-22T05:54:14;100490.44;;;20.94;68.49
41712;BME280;27399;51.516;13.670;2023-05-22T05:56:40;100501.84;;;21.00;68.00
41712;BME280;27399;51.516;13.670;2023-05-22T05:59:06;100477.03;;;21.08;68.44
41712;BME280;27399;51.516;13.670;2023-05-22T06:01:33;100494.91;;;21.12;69.60
41712;BME280;27399;51.516;13.670;2023-05-22T06:03:59;100491.09;;;21.16;68.55
41712;BME280;27399;51.516;13.670;2023-05-22T06:06:29;100489.88;;;21.22;68.78
41712;BME280;27399;51.516;13.670;2023-05-22T06:09:00;100489.88;;;21.22;70.49
41712;BME280;27399;51.516;13.670;2023-05-22T06:11:25;100486.50;;;21.34;70.18
41712;BME280;27399;51.516;13.670;2023-05-22T06:13:51;100482.28;;;21.29;71.61
41712;BME280;27399;51.516;13.670;2023-05-22T06:16:17;100479.72;;;21.43;70.84
41712;BME280;27399;51.516;13.670;2023-05-22T06:18:42;100488.75;;;21.44;69.07
41712;BME280;27399;51.516;13.670;2023-05-22T06:21:08;100485.72;;;21.50;69.83
41712;BME280;27399;51.516;13.670;2023-05-22T06:23:33;100489.84;;;21.57;70.29
41712;BME280;27399;51.516;13.670;2023-05-22T06:25:59;100486.59;;;21.68;71.07
41712;BME280;27399;51.516;13.670;2023-05-22T06:28:25;100478.13;;;21.74;71.76
41712;BME280;27399;51.516;13.670;2023-05-22T06:30:51;100480.31;;;21.83;70.31
41712;BME280;27399;51.516;13.670;2023-05-22T06:33:16;100478.78;;;21.95;70.11
41712;BME280;27399;51.516;13.670;2023-05-22T06:35:42;100478.63;;;22.14;67.53
41712;BME280;27399;51.516;13.670;2023-05-22T06:38:07;100477.91;;;22.11;67.73
41712;BME280;27399;51.516;13.670;2023-05-22T06:40:33;100484.22;;;21.95;66.80
41712;BME280;27399;51.516;13.670;2023-05-22T06:43:00;100476.88;;;22.13;68.42
41712;BME280;27399;51.516;13.670;2023-05-22T06:51:59;100480.22;;;22.35;68.27
41712;BME280;27399;51.516;13.670;2023-05-22T06:54:25;100485.50;;;22.38;70.28
41712;BME280;27399;51.516;13.670;2023-05-22T06:56:56;100479.72;;;22.44;71.21
41712;BME280;27399;51.516;13.670;2023-05-22T06:59:22;100475.13;;;22.28;71.79
41712;BME280;27399;51.516;13.670;2023-05-22T07:01:48;100488.31;;;22.52;71.01
41712;BME280;27399;51.516;13.670;2023-05-22T07:04:13;100466.91;;;22.30;71.77
41712;BME280;27399;51.516;13.670;2023-05-22T07:06:39;100483.75;;;22.53;74.04
41712;BME280;27399;51.516;13.670;2023-05-22T07:09:06;100482.84;;;22.68;73.09
41712;BME280;27399;51.516;13.670;2023-05-22T07:11:33;100482.69;;;22.71;70.89
41712;BME280;27399;51.516;13.670;2023-05-22T07:14:00;100479.16;;;22.85;70.73
41712;BME280;27399;51.516;13.670;2023-05-22T07:16:27;100487.72;;;22.94;67.89
41712;BME280;27399;51.516;13.670;2023-05-22T07:18:54;100482.78;;;23.00;70.33
41712;BME280;27399;51.516;13.670;2023-05-22T07:21:19;100481.56;;;23.06;70.54
41712;BME280;27399;51.516;13.670;2023-05-22T07:23:48;100480.41;;;23.10;70.02
41712;BME280;27399;51.516;13.670;2023-05-22T07:26:14;100478.66;;;23.40;68.24
41712;BME280;27399;51.516;13.670;2023-05-22T07:28:39;100484.31;;;23.51;67.90
41712;BME280;27399;51.516;13.670;2023-05-22T07:31:05;100488.13;;;23.63;66.87
41712;BME280;27399;51.516;13.670;2023-05-22T07:33:31;100486.50;;;23.89;67.31
41712;BME280;27399;51.516;13.670;2023-05-22T07:35:57;100479.03;;;24.07;67.87
41712;BME280;27399;51.516;13.670;2023-05-22T07:38:22;100474.13;;;24.27;65.44
41712;BME280;27399;51.516;13.670;2023-05-22T07:40:48;100476.19;;;24.51;63.46
41712;BME280;27399;51.516;13.670;2023-05-22T07:43:14;100469.25;;;24.59;63.16
41712;BME280;27399;51.516;13.670;2023-05-22T07:45:41;100472.47;;;24.66;65.15
41712;BME280;27399;51.516;13.670;2023-05-22T07:48:08;100476.81;;;24.83;62.24
41712;BME280;27399;51.516;13.670;2023-05-22T07:50:34;100473.47;;;25.05;61.42
41712;BME280;27399;51.516;13.670;2023-05-22T07:53:00;100478.44;;;25.26;62.66
41712;BME280;27399;51.516;13.670;2023-05-22T07:55:26;100478.88;;;25.33;61.06
41712;BME280;27399;51.516;13.670;2023-05-22T07:57:51;100481.31;;;25.50;60.96
41712;BME280;27399;51.516;13.670;2023-05-22T08:00:17;100466.47;;;25.55;60.95
41712;BME280;27399;51.516;13.670;2023-05-22T08:02:43;100475.00;;;25.76;61.83
41712;BME280;27399;51.516;13.670;2023-05-22T08:05:09;100481.66;;;25.72;59.31
41712;BME280;27399;51.516;13.670;2023-05-22T08:07:35;100481.75;;;25.96;59.25
41712;BME280;27399;51.516;13.670;2023-05-22T08:10:06;100485.50;;;25.82;61.01
41712;BME280;27399;51.516;13.670;2023-05-22T08:12:32;100474.13;;;26.01;57.24
41712;BME280;27399;51.516;13.670;2023-05-22T08:14:58;100479.69;;;26.12;58.85
41712;BME280;27399;51.516;13.670;2023-05-22T08:17:24;100475.09;;;26.13;57.20
41712;BME280;27399;51.516;13.670;2023-05-22T08:19:49;100478.72;;;25.88;56.54
41712;BME280;27399;51.516;13.670;2023-05-22T08:22:15;100468.09;;;26.22;57.45
41712;BME280;27399;51.516;13.670;2023-05-22T08:24:41;100464.19;;;26.37;57.83
41712;BME280;27399;51.516;13.670;2023-05-22T08:27:06;100463.19;;;26.14;56.20
41712;BME280;27399;51.516;13.670;2023-05-22T08:29:32;100471.41;;;26.38;59.54
41712;BME280;27399;51.516;13.670;2023-05-22T08:31:58;100462.25;;;26.64;58.38
41712;BME280;27399;51.516;13.670;2023-05-22T08:34:24;100471.41;;;26.75;56.13
41712;BME280;27399;51.516;13.670;2023-05-22T08:36:49;100461.44;;;26.50;56.27
41712;BME280;27399;51.516;13.670;2023-05-22T08:39:16;100468.22;;;26.82;56.17
41712;BME280;27399;51.516;13.670;2023-05-22T08:41:43;100460.41;;;26.64;54.21
41712;BME280;27399;51.516;13.670;2023-05-22T08:44:10;100472.06;;;26.79;56.06
41712;BME280;27399;51.516;13.670;2023-05-22T08:46:38;100466.25;;;26.84;54.67
41712;BME280;27399;51.516;13.670;2023-05-22T08:49:07;100458.03;;;26.84;54.83
41712;BME280;27399;51.516;13.670;2023-05-22T08:51:37;100453.88;;;27.02;55.25
41712;BME280;27399;51.516;13.670;2023-05-22T08:54:04;100451.31;;;27.12;56.39
41712;BME280;27399;51.516;13.670;2023-05-22T08:56:32;100450.53;;;27.57;53.41
41712;BME280;27399;51.516;13.670;2023-05-22T08:58:59;100448.00;;;27.43;52.08
41712;BME280;27399;51.516;13.670;2023-05-22T09:01:25;100444.56;;;27.75;52.14
41712;BME280;27399;51.516;13.670;2023-05-22T09:03:50;100442.34;;;27.80;51.57
41712;BME280;27399;51.516;13.670;2023-05-22T09:06:16;100437.25;;;27.87;50.26
41712;BME280;27399;51.516;13.670;2023-05-22T09:08:43;100424.03;;;27.69;51.87
41712;BME280;27399;51.516;13.670;2023-05-22T09:11:08;100437.25;;;27.87;51.21
41712;BME280;27399;51.516;13.670;2023-05-22T09:13:37;100430.25;;;27.94;51.49
41712;BME280;27399;51.516;13.670;2023-05-22T09:16:08;100433.50;;;27.88;50.83
41712;BME280;27399;51.516;13.670;2023-05-22T09:18:38;100433.38;;;28.01;51.48
41712;BME280;27399;51.516;13.670;2023-05-22T09:21:05;100428.13;;;28.20;52.75
41712;BME280;27399;51.516;13.670;2023-05-22T09:23:31;100431.78;;;28.09;51.16
41712;BME280;27399;51.516;13.670;2023-05-22T09:25:58;100428.66;;;28.14;50.87
41712;BME280;27399;51.516;13.670;2023-05-22T09:28:24;100420.44;;;28.14;51.21
41712;BME280;27399;51.516;13.670;2023-05-22T09:30:51;100422.28;;;28.25;51.96
41712;BME280;27399;51.516;13.670;2023-05-22T09:33:18;100423.63;;;28.30;51.50
41712;BME280;27399;51.516;13.670;2023-05-22T09:35:47;100433.59;;;28.32;48.82
41712;BME280;27399;51.516;13.670;2023-05-22T09:38:14;100428.88;;;28.66;50.18
41712;BME280;27399;51.516;13.670;2023-05-22T09:40:40;100430.72;;;28.88;51.15
41712;BME280;27399;51.516;13.670;2023-05-22T09:43:07;100428.13;;;28.75;48.56
41712;BME280;27399;51.516;13.670;2023-05-22T09:45:34;100430.66;;;29.21;48.86
41712;BME280;27399;51.516;13.670;2023-05-22T09:48:01;100422.53;;;29.62;49.76
41712;BME280;27399;51.516;13.670;2023-05-22T09:50:27;100419.41;;;29.24;47.19
41712;BME280;27399;51.516;13.670;2023-05-22T09:52:53;100416.56;;;29.57;48.34
41712;BME280;27399;51.516;13.670;2023-05-22T09:55:19;100422.47;;;29.31;48.23
41712;BME280;27399;51.516;13.670;2023-05-22T09:57:50;100425.78;;;29.46;47.66
41712;BME280;27399;51.516;13.670;2023-05-22T10:00:17;100407.06;;;29.61;47.54
41712;BME280;27399;51.516;13.670;2023-05-22T10:02:58;100409.06;;;29.59;46.95
41712;BME280;27399;51.516;13.670;2023-05-22T10:05:29;100407.13;;;29.80;47.74
41712;BME280;27399;51.516;13.670;2023-05-22T10:08:10;100402.91;;;29.97;47.75
41712;BME280;27399;51.516;13.670;2023-05-22T10:10:39;100392.97;;;29.85;46.30
41712;BME280;27399;51.516;13.670;2023-05-22T10:13:06;100386.09;;;30.01;47.98
41712;BME280;27399;51.516;13.670;2023-05-22T10:15:35;100384.50;;;29.98;45.17
41712;BME280;27399;51.516;13.670;2023-05-22T10:18:01;100392.22;;;30.14;46.48
41712;BME280;27399;51.516;13.670;2023-05-22T10:20:28;100381.38;;;30.12;46.12
41712;BME280;27399;51.516;13.670;2023-05-22T10:22:55;100388.97;;;29.89;45.69
41712;BME280;27399;51.516;13.670;2023-05-22T10:25:21;100389.75;;;30.11;45.31
41712;BME280;27399;51.516;13.670;2023-05-22T10:27:48;100389.34;;;29.84;46.36
41712;BME280;27399;51.516;13.670;2023-05-22T10:32:59;100386.22;;;29.16;44.25
41712;BME280;27399;51.516;13.670;2023-05-22T10:40:44;100365.19;;;29.26;45.96
41712;BME280;27399;51.516;13.670;2023-05-22T10:43:11;100367.28;;;29.34;47.42
41712;BME280;27399;51.516;13.670;2023-05-22T10:45:36;100366.25;;;29.56;45.37
41712;BME280;27399;51.516;13.670;2023-05-22T10:48:07;100360.06;;;29.33;46.11
41712;BME280;27399;51.516;13.670;2023-05-22T10:50:34;100354.31;;;29.36;46.15
41712;BME280;27399;51.516;13.670;2023-05-22T10:53:26;100358.13;;;29.55;45.65
41712;BME280;27399;51.516;13.670;2023-05-22T10:55:53;100349.47;;;29.49;44.82
41712;BME280;27399;51.516;13.670;2023-05-22T10:58:29;100346.53;;;29.82;46.55
41712;BME280;27399;51.516;13.670;2023-05-22T11:04:00;100349.38;;;29.61;45.29
41712;BME280;27399;51.516;13.670;2023-05-22T11:06:36;100346.41;;;29.83;44.93
41712;BME280;27399;51.516;13.670;2023-05-22T11:09:27;100346.59;;;30.02;45.27
41712;BME280;27399;51.516;13.670;2023-05-22T11:12:16;100350.16;;;29.92;44.36
41712;BME280;27399;51.516;13.670;2023-05-22T11:17:30;100350.25;;;30.12;45.46
41712;BME280;27399;51.516;13.670;2023-05-22T11:20:14;100348.38;;;30.32;44.48
41712;BME280;27399;51.516;13.670;2023-05-22T11:22:48;100345.63;;;30.91;45.25
41712;BME280;27399;51.516;13.670;2023-05-22T11:25:18;100347.69;;;30.69;42.71
41712;BME280;27399;51.516;13.670;2023-05-22T11:27:45;100332.28;;;31.26;43.71
41712;BME280;27399;51.516;13.670;2023-05-22T11:30:12;100331.56;;;31.51;43.98
41712;BME280;27399;51.516;13.670;2023-05-22T11:32:39;100329.56;;;31.81;42.86
41712;BME280;27399;51.516;13.670;2023-05-22T11:35:12;100328.88;;;31.79;43.73
41712;BME280;27399;51.516;13.670;2023-05-22T11:37:39;100329.16;;;32.22;43.37
41712;BME280;27399;51.516;13.670;2023-05-22T11:40:05;100342.03;;;32.32;42.37
41712;BME280;27399;51.516;13.670;2023-05-22T11:42:34;100334.41;;;32.25;41.92
41712;BME280;27399;51.516;13.670;2023-05-22T11:45:01;100328.72;;;32.27;41.93
41712;BME280;27399;51.516;13.670;2023-05-22T11:47:27;100333.69;;;32.41;41.52
41712;BME280;27399;51.516;13.670;2023-05-22T11:49:56;100335.69;;;32.21;42.49
41712;BME280;27399;51.516;13.670;2023-05-22T11:52:23;100323.56;;;32.50;42.16
41712;BME280;27399;51.516;13.670;2023-05-22T11:54:51;100332.00;;;32.30;42.42
41712;BME280;27399;51.516;13.670;2023-05-22T11:57:19;100331.88;;;32.04;41.74
41712;BME280;27399;51.516;13.670;2023-05-22T11:59:45;100323.22;;;31.99;40.83
41712;BME280;27399;51.516;13.670;2023-05-22T12:02:11;100323.41;;;31.60;41.09
41712;BME280;27399;51.516;13.670;2023-05-22T12:04:38;100321.91;;;31.65;41.54
41712;BME280;27399;51.516;13.670;2023-05-22T12:07:04;100321.28;;;31.16;42.94
41712;BME280;27399;51.516;13.670;2023-05-22T12:09:30;100321.44;;;31.52;43.97
41712;BME280;27399;51.516;13.670;2023-05-22T12:11:56;100316.31;;;31.29;44.44
41712;BME280;27399;51.516;13.670;2023-05-22T12:14:28;100308.34;;;31.26;43.73
41712;BME280;27399;51.516;13.670;2023-05-22T12:16:58;100323.31;;;30.94;44.35
41712;BME280;27399;51.516;13.670;2023-05-22T12:19:24;100296.19;;;31.09;44.36
41712;BME280;27399;51.516;13.670;2023-05-22T12:21:51;100304.78;;;30.86;44.03
41712;BME280;27399;51.516;13.670;2023-05-22T12:24:18;100299.59;;;30.73;44.51
41712;BME280;27399;51.516;13.670;2023-05-22T12:26:55;100299.56;;;30.93;45.49
41712;BME280;27399;51.516;13.670;2023-05-22T12:29:21;100304.53;;;30.70;45.45
41712;BME280;27399;51.516;13.670;2023-05-22T12:31:47;100295.09;;;30.04;44.17
41712;BME280;27399;51.516;13.670;2023-05-22T12:34:13;100294.09;;;30.44;44.84
41712;BME280;27399;51.516;13.670;2023-05-22T12:36:41;100289.91;;;30.40;44.20
41712;BME280;27399;51.516;13.670;2023-05-22T12:39:16;100295.56;;;30.28;45.77
41712;BME280;27399;51.516;13.670;2023-05-22T12:41:45;100287.16;;;30.20;45.42
41712;BME280;27399;51.516;13.670;2023-05-22T12:44:11;100281.09;;;30.36;45.52
41712;BME280;27399;51.516;13.670;2023-05-22T12:46:37;100289.47;;;30.54;46.96
41712;BME280;27399;51.516;13.670;2023-05-22T12:49:02;100286.72;;;30.15;44.30
41712;BME280;27399;51.516;13.670;2023-05-22T12:51:30;100288.88;;;30.11;45.71
41712;BME280;27399;51.516;13.670;2023-05-22T12:53:57;100283.41;;;30.60;44.84
41712;BME280;27399;51.516;13.670;2023-05-22T12:56:55;100284.25;;;30.61;46.46
41712;BME280;27399;51.516;13.670;2023-05-22T13:09:26;100268.88;;;30.49;45.24
41712;BME280;27399;51.516;13.670;2023-05-22T13:11:51;100264.13;;;30.70;45.16
41712;BME280;27399;51.516;13.670;2023-05-22T13:14:19;100275.28;;;30.59;44.83
41712;BME280;27399;51.516;13.670;2023-05-22T13:16:45;100273.09;;;30.72;44.25
41712;BME280;27399;51.516;13.670;2023-05-22T13:19:11;100269.91;;;30.77;43.90
41712;BME280;27399;51.516;13.670;2023-05-22T13:21:36;100263.72;;;30.45;45.00